createdAt,value
2019-04-29T00:00:30.224Z,8.40
2019-04-29T00:01:30.244Z,8.43
2019-04-29T00:02:30.268Z,8.35
2019-04-29T00:03:30.294Z,8.35
2019-04-29T00:04:30.322Z,8.46
2019-04-29T00:05:30.342Z,8.34
2019-04-29T00:06:30.367Z,8.40
2019-04-29T00:07:30.390Z,8.35
2019-04-29T00:08:30.421Z,8.42
2019-04-29T00:09:31.071Z,8.34
2019-04-29T00:10:30.463Z,8.34
2019-04-29T00:11:30.493Z,8.34
2019-04-29T00:12:30.520Z,8.31
2019-04-29T00:13:30.539Z,8.31
2019-04-29T00:14:30.566Z,8.32
2019-04-29T00:15:30.595Z,8.35
2019-04-29T00:16:30.616Z,8.32
2019-04-29T00:17:30.638Z,8.32
2019-04-29T00:18:30.663Z,8.35
2019-04-29T00:19:30.690Z,8.35
2019-04-29T00:20:30.710Z,8.34
2019-04-29T00:21:30.740Z,8.32
2019-04-29T00:22:30.759Z,8.32
2019-04-29T00:23:30.786Z,8.34
2019-04-29T00:24:30.813Z,8.29
2019-04-29T00:25:30.836Z,8.32
2019-04-29T00:26:30.858Z,8.31
2019-04-29T00:27:30.888Z,8.32
2019-04-29T00:28:30.911Z,8.31
2019-04-29T00:29:30.933Z,8.35
2019-04-29T00:30:30.963Z,8.28
2019-04-29T00:31:30.996Z,8.39
2019-04-29T00:32:31.003Z,8.34
2019-04-29T00:33:31.030Z,8.35
2019-04-29T00:34:31.062Z,8.32
2019-04-29T00:35:31.082Z,8.35
2019-04-29T00:36:31.103Z,8.25
2019-04-29T00:37:31.126Z,8.25
2019-04-29T00:38:31.153Z,8.26
2019-04-29T00:39:31.179Z,8.28
2019-04-29T00:40:31.209Z,8.17
2019-04-29T00:41:31.227Z,8.13
2019-04-29T00:42:31.252Z,8.17
2019-04-29T00:43:31.280Z,8.14
2019-04-29T00:44:31.302Z,8.16
2019-04-29T00:45:31.329Z,8.16
2019-04-29T00:46:31.358Z,8.24
2019-04-29T00:47:31.373Z,8.14
2019-04-29T00:48:31.396Z,8.17
2019-04-29T00:49:31.423Z,8.17
2019-04-29T00:50:31.453Z,8.10
2019-04-29T00:51:31.474Z,8.13
2019-04-29T00:52:31.503Z,8.06
2019-04-29T00:53:31.523Z,7.99
2019-04-29T00:54:31.545Z,7.99
2019-04-29T00:55:31.643Z,7.95
2019-04-29T00:56:31.595Z,7.96
2019-04-29T00:57:31.630Z,7.98
2019-04-29T00:58:31.649Z,8.01
2019-04-29T00:59:31.674Z,8.01
2019-04-29T01:00:31.692Z,7.99
2019-04-29T01:01:31.721Z,8.06
2019-04-29T01:02:31.746Z,8.01
2019-04-29T01:03:31.771Z,8.03
2019-04-29T01:04:31.790Z,7.98
2019-04-29T01:05:31.816Z,7.99
2019-04-29T01:06:31.842Z,7.96
2019-04-29T01:07:31.867Z,7.88
2019-04-29T01:08:31.892Z,7.85
2019-04-29T01:09:31.922Z,7.88
2019-04-29T01:10:31.944Z,7.89
2019-04-29T01:11:31.972Z,7.89
2019-04-29T01:12:31.994Z,7.86
2019-04-29T01:13:32.008Z,7.83
2019-04-29T01:14:32.039Z,7.83
2019-04-29T01:15:32.061Z,7.80
2019-04-29T01:16:32.085Z,7.91
2019-04-29T01:17:32.109Z,7.88
2019-04-29T01:18:32.136Z,7.88
2019-04-29T01:19:32.159Z,7.86
2019-04-29T01:20:32.180Z,7.88
2019-04-29T01:21:32.207Z,7.78
2019-04-29T01:22:32.237Z,7.82
2019-04-29T01:23:32.260Z,7.78
2019-04-29T01:24:32.285Z,7.77
2019-04-29T01:25:32.302Z,7.77
2019-04-29T01:26:32.329Z,7.64
2019-04-29T01:27:32.359Z,7.67
2019-04-29T01:28:32.388Z,7.68
2019-04-29T01:29:32.415Z,7.68
2019-04-29T01:30:32.429Z,7.70
2019-04-29T01:31:32.460Z,7.70
2019-04-29T01:32:32.479Z,7.71
2019-04-29T01:33:32.498Z,7.71
2019-04-29T01:34:32.524Z,7.63
2019-04-29T01:35:32.546Z,7.73
2019-04-29T01:36:32.573Z,7.67
2019-04-29T01:37:32.598Z,7.67
2019-04-29T01:38:32.625Z,7.59
2019-04-29T01:39:32.668Z,7.63
2019-04-29T01:40:32.668Z,7.67
2019-04-29T01:41:32.698Z,7.64
2019-04-29T01:42:32.718Z,7.61
2019-04-29T01:43:32.741Z,7.56
2019-04-29T01:44:32.788Z,7.58
2019-04-29T01:45:32.789Z,7.49
2019-04-29T01:46:32.843Z,7.47
2019-04-29T01:47:32.840Z,7.56
2019-04-29T01:48:32.868Z,7.52
2019-04-29T01:49:32.891Z,7.61
2019-04-29T01:50:32.911Z,7.33
2019-04-29T01:51:32.940Z,7.49
2019-04-29T01:52:32.962Z,7.47
2019-04-29T01:53:32.990Z,7.41
2019-04-29T01:54:33.008Z,7.49
2019-04-29T01:55:33.036Z,7.48
2019-04-29T01:56:33.063Z,7.33
2019-04-29T01:57:33.080Z,7.40
2019-04-29T01:58:33.112Z,7.31
2019-04-29T01:59:33.131Z,7.30
2019-04-29T02:00:33.156Z,7.27
2019-04-29T02:01:33.184Z,7.39
2019-04-29T02:02:33.207Z,7.34
2019-04-29T02:03:33.231Z,7.30
2019-04-29T02:04:33.256Z,7.30
2019-04-29T02:05:33.281Z,7.30
2019-04-29T02:06:33.301Z,7.36
2019-04-29T02:07:33.323Z,7.36
2019-04-29T02:08:33.348Z,7.36
2019-04-29T02:09:33.374Z,7.29
2019-04-29T02:10:33.404Z,7.44
2019-04-29T02:11:33.422Z,7.31
2019-04-29T02:12:33.451Z,7.34
2019-04-29T02:13:33.468Z,7.34
2019-04-29T02:14:33.499Z,7.36
2019-04-29T02:15:33.517Z,7.29
2019-04-29T02:16:33.548Z,7.29
2019-04-29T02:17:33.573Z,7.30
2019-04-29T02:18:33.596Z,7.37
2019-04-29T02:19:33.620Z,7.29
2019-04-29T02:20:33.638Z,7.21
2019-04-29T02:21:33.668Z,7.16
2019-04-29T02:22:33.699Z,7.19
2019-04-29T02:23:33.720Z,7.16
2019-04-29T02:24:33.741Z,7.18
2019-04-29T02:25:33.762Z,7.15
2019-04-29T02:26:33.782Z,7.11
2019-04-29T02:27:33.815Z,7.08
2019-04-29T02:28:33.842Z,7.08
2019-04-29T02:29:33.860Z,7.03
2019-04-29T02:30:33.894Z,7.01
2019-04-29T02:31:33.909Z,7.12
2019-04-29T02:32:33.928Z,7.11
2019-04-29T02:33:33.959Z,7.12
2019-04-29T02:34:33.979Z,7.16
2019-04-29T02:35:34.001Z,7.16
2019-04-29T02:36:34.030Z,7.26
2019-04-29T02:37:34.055Z,7.12
2019-04-29T02:38:34.084Z,7.21
2019-04-29T02:39:34.101Z,7.18
2019-04-29T02:40:34.131Z,7.19
2019-04-29T02:41:34.151Z,7.15
2019-04-29T02:42:34.170Z,7.18
2019-04-29T02:43:34.202Z,7.21
2019-04-29T02:44:34.224Z,7.08
2019-04-29T02:45:34.244Z,7.16
2019-04-29T02:46:34.270Z,7.15
2019-04-29T02:47:34.294Z,7.12
2019-04-29T02:48:35.076Z,7.16
2019-04-29T02:49:34.338Z,7.11
2019-04-29T02:50:34.363Z,7.21
2019-04-29T02:51:34.386Z,7.15
2019-04-29T02:52:34.419Z,7.16
2019-04-29T02:53:34.438Z,7.15
2019-04-29T02:54:34.459Z,7.16
2019-04-29T02:55:34.501Z,7.18
2019-04-29T02:56:34.508Z,7.15
2019-04-29T02:57:34.530Z,7.13
2019-04-29T02:58:34.562Z,7.16
2019-04-29T02:59:34.589Z,7.09
2019-04-29T03:00:34.605Z,7.12
2019-04-29T03:01:34.689Z,7.11
2019-04-29T03:02:34.655Z,7.12
2019-04-29T03:03:34.684Z,7.04
2019-04-29T03:04:34.702Z,7.01
2019-04-29T03:05:34.734Z,7.04
2019-04-29T03:06:34.756Z,7.04
2019-04-29T03:07:34.779Z,7.04
2019-04-29T03:08:34.803Z,7.05
2019-04-29T03:09:34.826Z,7.00
2019-04-29T03:10:34.856Z,7.00
2019-04-29T03:11:34.872Z,6.98
2019-04-29T03:12:34.903Z,7.01
2019-04-29T03:13:34.925Z,7.00
2019-04-29T03:14:34.947Z,7.01
2019-04-29T03:15:34.966Z,7.00
2019-04-29T03:16:34.993Z,7.03
2019-04-29T03:17:35.018Z,6.97
2019-04-29T03:18:35.037Z,7.15
2019-04-29T03:19:35.065Z,7.04
2019-04-29T03:20:35.092Z,7.01
2019-04-29T03:21:35.125Z,6.95
2019-04-29T03:22:35.143Z,7.03
2019-04-29T03:23:35.164Z,6.97
2019-04-29T03:24:35.184Z,6.93
2019-04-29T03:25:35.204Z,6.95
2019-04-29T03:26:35.232Z,6.93
2019-04-29T03:27:35.256Z,6.88
2019-04-29T03:28:35.282Z,6.95
2019-04-29T03:29:35.301Z,6.94
2019-04-29T03:30:35.334Z,6.93
2019-04-29T03:31:39.513Z,6.97
2019-04-29T03:32:35.373Z,6.94
2019-04-29T03:33:35.421Z,6.94
2019-04-29T03:34:35.420Z,6.93
2019-04-29T03:35:35.450Z,6.94
2019-04-29T03:36:35.475Z,6.95
2019-04-29T03:37:35.518Z,6.94
2019-04-29T03:38:35.524Z,6.95
2019-04-29T03:39:35.543Z,6.90
2019-04-29T03:40:35.574Z,6.97
2019-04-29T03:41:35.592Z,7.00
2019-04-29T03:42:35.710Z,6.86
2019-04-29T03:43:35.637Z,6.86
2019-04-29T03:44:35.666Z,6.88
2019-04-29T03:45:35.689Z,6.80
2019-04-29T03:46:35.714Z,6.75
2019-04-29T03:47:35.731Z,6.73
2019-04-29T03:48:35.764Z,6.82
2019-04-29T03:49:35.781Z,6.72
2019-04-29T03:50:35.806Z,6.86
2019-04-29T03:51:35.829Z,6.88
2019-04-29T03:52:35.858Z,6.79
2019-04-29T03:53:35.875Z,6.86
2019-04-29T03:54:35.908Z,6.79
2019-04-29T03:55:39.763Z,6.83
2019-04-29T03:56:35.954Z,6.70
2019-04-29T03:57:35.980Z,6.68
2019-04-29T03:58:36.063Z,6.78
2019-04-29T03:59:36.026Z,6.73
2019-04-29T04:00:36.049Z,6.82
2019-04-29T04:01:36.077Z,6.76
2019-04-29T04:02:36.097Z,6.75
2019-04-29T04:03:36.116Z,6.79
2019-04-29T04:04:36.139Z,6.80
2019-04-29T04:05:36.165Z,6.75
2019-04-29T04:06:36.192Z,6.73
2019-04-29T04:07:36.209Z,6.73
2019-04-29T04:08:36.235Z,6.73
2019-04-29T04:09:36.257Z,6.68
2019-04-29T04:10:36.301Z,6.73
2019-04-29T04:11:36.307Z,6.76
2019-04-29T04:12:36.335Z,6.70
2019-04-29T04:13:36.356Z,6.76
2019-04-29T04:14:36.376Z,6.70
2019-04-29T04:15:36.404Z,6.79
2019-04-29T04:16:36.430Z,6.79
2019-04-29T04:17:36.448Z,6.73
2019-04-29T04:18:36.480Z,6.75
2019-04-29T04:19:36.506Z,6.73
2019-04-29T04:20:36.528Z,6.76
2019-04-29T04:21:36.557Z,6.79
2019-04-29T04:22:36.567Z,6.78
2019-04-29T04:23:36.610Z,6.79
2019-04-29T04:24:36.619Z,6.85
2019-04-29T04:25:36.640Z,6.85
2019-04-29T04:26:36.669Z,6.83
2019-04-29T04:27:36.691Z,6.78
2019-04-29T04:28:36.714Z,6.76
2019-04-29T04:29:36.736Z,6.72
2019-04-29T04:30:36.761Z,6.79
2019-04-29T04:31:36.793Z,6.72
2019-04-29T04:32:36.807Z,6.78
2019-04-29T04:33:36.826Z,6.85
2019-04-29T04:34:36.852Z,6.85
2019-04-29T04:35:36.882Z,6.75
2019-04-29T04:36:36.905Z,6.83
2019-04-29T04:37:36.928Z,6.85
2019-04-29T04:38:36.955Z,6.76
2019-04-29T04:39:36.972Z,6.85
2019-04-29T04:40:37.004Z,6.82
2019-04-29T04:41:37.022Z,6.83
2019-04-29T04:42:37.045Z,6.85
2019-04-29T04:43:37.081Z,6.90
2019-04-29T04:44:37.092Z,6.91
2019-04-29T04:45:37.191Z,6.95
2019-04-29T04:46:37.139Z,6.95
2019-04-29T04:47:37.161Z,7.01
2019-04-29T04:48:37.189Z,6.95
2019-04-29T04:49:37.207Z,6.88
2019-04-29T04:50:37.233Z,6.88
2019-04-29T04:51:37.260Z,6.95
2019-04-29T04:52:37.284Z,6.90
2019-04-29T04:53:37.311Z,6.97
2019-04-29T04:54:37.331Z,6.97
2019-04-29T04:55:37.357Z,7.05
2019-04-29T04:56:37.380Z,6.95
2019-04-29T04:57:37.402Z,6.97
2019-04-29T04:58:37.424Z,7.01
2019-04-29T04:59:37.450Z,7.09
2019-04-29T05:00:37.471Z,7.09
2019-04-29T05:01:37.494Z,7.11
2019-04-29T05:02:37.521Z,7.12
2019-04-29T05:03:37.548Z,7.11
2019-04-29T05:04:37.569Z,7.09
2019-04-29T05:05:37.591Z,7.15
2019-04-29T05:06:37.616Z,7.15
2019-04-29T05:07:37.642Z,7.13
2019-04-29T05:08:37.712Z,7.13
2019-04-29T05:09:37.691Z,7.15
2019-04-29T05:10:37.716Z,7.18
2019-04-29T05:11:37.792Z,7.22
2019-04-29T05:12:37.764Z,7.29
2019-04-29T05:13:37.788Z,7.36
2019-04-29T05:14:37.809Z,7.31
2019-04-29T05:15:37.837Z,7.40
2019-04-29T05:16:37.862Z,7.47
2019-04-29T05:17:37.882Z,7.61
2019-04-29T05:18:37.906Z,8.01
2019-04-29T05:19:37.933Z,7.99
2019-04-29T05:20:37.956Z,8.09
2019-04-29T05:21:37.981Z,7.99
2019-04-29T05:22:38.004Z,7.96
2019-04-29T05:23:38.024Z,7.98
2019-04-29T05:24:38.051Z,7.99
2019-04-29T05:25:38.076Z,8.09
2019-04-29T05:26:38.145Z,8.13
2019-04-29T05:27:38.124Z,8.26
2019-04-29T05:28:38.145Z,8.46
2019-04-29T05:29:38.186Z,8.47
2019-04-29T05:30:38.197Z,8.67
2019-04-29T05:31:38.217Z,8.50
2019-04-29T05:32:38.249Z,8.54
2019-04-29T05:33:38.471Z,8.46
2019-04-29T05:34:41.682Z,8.44
2019-04-29T05:35:40.267Z,8.39
2019-04-29T05:36:39.347Z,8.39
2019-04-29T05:37:38.366Z,8.61
2019-04-29T05:38:38.388Z,8.57
2019-04-29T05:39:38.413Z,8.60
2019-04-29T05:40:38.439Z,8.58
2019-04-29T05:41:38.462Z,8.57
2019-04-29T05:42:38.484Z,8.58
2019-04-29T05:43:38.508Z,8.67
2019-04-29T05:44:38.536Z,8.69
2019-04-29T05:45:41.549Z,8.69
2019-04-29T05:46:38.586Z,8.83
2019-04-29T05:47:38.614Z,8.86
2019-04-29T05:48:38.632Z,8.80
2019-04-29T05:49:41.645Z,8.74
2019-04-29T05:50:38.680Z,8.67
2019-04-29T05:51:38.704Z,8.72
2019-04-29T05:52:39.547Z,8.64
2019-04-29T05:53:38.759Z,8.64
2019-04-29T05:54:38.778Z,8.80
2019-04-29T05:55:38.803Z,8.89
2019-04-29T05:56:38.832Z,8.94
2019-04-29T05:57:38.860Z,8.98
2019-04-29T05:58:39.573Z,9.27
2019-04-29T05:59:38.911Z,9.30
2019-04-29T06:00:38.929Z,9.53
2019-04-29T06:01:42.742Z,9.50
2019-04-29T06:02:39.051Z,9.42
2019-04-29T06:03:39.851Z,9.32
2019-04-29T06:04:39.025Z,9.30
2019-04-29T06:05:39.052Z,9.30
2019-04-29T06:06:39.079Z,9.35
2019-04-29T06:07:39.106Z,9.38
2019-04-29T06:08:39.558Z,9.35
2019-04-29T06:09:39.158Z,9.32
2019-04-29T06:10:41.950Z,9.56
2019-04-29T06:11:39.214Z,9.66
2019-04-29T06:12:39.227Z,9.62
2019-04-29T06:13:39.271Z,9.71
2019-04-29T06:14:39.277Z,9.85
2019-04-29T06:15:39.320Z,10.07
2019-04-29T06:16:39.332Z,10.23
2019-04-29T06:17:39.948Z,10.36
2019-04-29T06:18:41.060Z,10.61
2019-04-29T06:19:41.036Z,10.59
2019-04-29T06:20:39.433Z,10.67
2019-04-29T06:21:39.458Z,10.41
2019-04-29T06:22:41.896Z,10.55
2019-04-29T06:23:39.511Z,10.66
2019-04-29T06:24:41.051Z,10.76
2019-04-29T06:25:39.558Z,11.05
2019-04-29T06:26:39.586Z,11.27
2019-04-29T06:27:39.614Z,11.39
2019-04-29T06:28:39.633Z,11.30
2019-04-29T06:29:39.657Z,11.30
2019-04-29T06:30:40.708Z,11.56
2019-04-29T06:31:39.746Z,11.75
2019-04-29T06:32:39.737Z,11.85
2019-04-29T06:33:39.764Z,12.07
2019-04-29T06:34:40.389Z,12.26
2019-04-29T06:35:43.421Z,12.61
2019-04-29T06:36:39.847Z,12.88
2019-04-29T06:37:39.875Z,13.03
2019-04-29T06:38:39.902Z,13.14
2019-04-29T06:39:39.931Z,13.10
2019-04-29T06:40:39.959Z,13.19
2019-04-29T06:41:40.521Z,13.09
2019-04-29T06:42:40.005Z,12.98
2019-04-29T06:43:40.036Z,13.02
2019-04-29T06:44:40.066Z,12.94
2019-04-29T06:45:40.094Z,12.84
2019-04-29T06:46:40.117Z,12.94
2019-04-29T06:47:40.154Z,12.98
2019-04-29T06:48:40.177Z,13.13
2019-04-29T06:49:40.204Z,13.17
2019-04-29T06:50:40.230Z,13.36
2019-04-29T06:51:40.262Z,13.51
2019-04-29T06:52:40.288Z,13.60
2019-04-29T06:53:40.317Z,13.88
2019-04-29T06:54:40.345Z,14.12
2019-04-29T06:55:40.371Z,14.19
2019-04-29T06:56:40.445Z,14.06
2019-04-29T06:57:40.423Z,14.21
2019-04-29T06:58:40.458Z,14.33
2019-04-29T06:59:42.941Z,14.21
2019-04-29T07:00:40.517Z,14.03
2019-04-29T07:01:40.539Z,13.91
2019-04-29T07:02:40.573Z,13.93
2019-04-29T07:03:40.611Z,13.93
2019-04-29T07:04:40.632Z,14.01
2019-04-29T07:05:40.666Z,13.93
2019-04-29T07:06:40.697Z,13.93
2019-04-29T07:07:40.720Z,13.76
2019-04-29T07:08:40.742Z,13.57
2019-04-29T07:09:40.770Z,13.37
2019-04-29T07:10:40.798Z,13.19
2019-04-29T07:11:40.831Z,13.17
2019-04-29T07:12:42.794Z,13.20
2019-04-29T07:13:40.884Z,13.03
2019-04-29T07:14:40.913Z,12.88
2019-04-29T07:15:43.528Z,12.69
2019-04-29T07:16:40.970Z,12.98
2019-04-29T07:17:42.746Z,12.94
2019-04-29T07:18:48.171Z,12.91
2019-04-29T07:19:41.062Z,13.14
2019-04-29T07:20:41.084Z,13.16
2019-04-29T07:21:41.780Z,13.55
2019-04-29T07:22:41.181Z,13.63
2019-04-29T07:23:41.174Z,13.63
2019-04-29T07:24:41.200Z,13.62
2019-04-29T07:25:41.227Z,13.66
2019-04-29T07:26:41.256Z,13.91
2019-04-29T07:27:44.160Z,13.90
2019-04-29T07:28:41.320Z,14.16
2019-04-29T07:29:41.346Z,14.24
2019-04-29T07:31:00.445Z,14.26
2019-04-29T07:31:41.405Z,14.46
2019-04-29T07:32:42.140Z,14.53
2019-04-29T07:33:41.457Z,14.27
2019-04-29T07:34:41.493Z,14.33
2019-04-29T07:35:42.881Z,14.42
2019-04-29T07:36:41.547Z,14.39
2019-04-29T07:37:41.573Z,14.75
2019-04-29T07:38:42.166Z,14.75
2019-04-29T07:39:41.631Z,14.89
2019-04-29T07:40:43.311Z,15.04
2019-04-29T07:41:41.699Z,15.01
2019-04-29T07:42:41.717Z,15.56
2019-04-29T07:43:43.000Z,15.81
2019-04-29T07:44:44.300Z,16.45
2019-04-29T07:45:44.310Z,16.59
2019-04-29T07:46:56.097Z,16.97
2019-04-29T07:47:55.421Z,16.80
2019-04-29T07:48:43.734Z,17.10
2019-04-29T07:49:41.927Z,17.28
2019-04-29T07:50:41.951Z,17.32
2019-04-29T07:51:41.981Z,17.47
2019-04-29T07:52:45.707Z,17.45
2019-04-29T07:53:45.411Z,17.63
2019-04-29T07:54:42.068Z,17.55
2019-04-29T07:55:42.098Z,17.54
2019-04-29T07:56:43.500Z,17.79
2019-04-29T07:57:42.164Z,17.60
2019-04-29T07:58:42.189Z,17.76
2019-04-29T07:59:42.232Z,17.66
2019-04-29T08:00:44.701Z,17.47
2019-04-29T08:01:42.289Z,17.17
2019-04-29T08:02:42.316Z,16.88
2019-04-29T08:03:42.351Z,16.82
2019-04-29T08:04:42.379Z,17.15
2019-04-29T08:05:42.406Z,17.36
2019-04-29T08:06:44.425Z,17.00
2019-04-29T08:07:42.471Z,17.24
2019-04-29T08:08:54.292Z,17.66
2019-04-29T08:09:44.221Z,17.77
2019-04-29T08:10:55.533Z,18.10
2019-04-29T08:11:42.597Z,18.05
2019-04-29T08:12:42.635Z,17.90
2019-04-29T08:13:42.667Z,17.86
2019-04-29T08:14:42.696Z,17.52
2019-04-29T08:15:43.594Z,17.86
2019-04-29T08:16:42.766Z,18.16
2019-04-29T08:17:42.791Z,17.88
2019-04-29T08:18:43.147Z,17.66
2019-04-29T08:19:42.872Z,17.76
2019-04-29T08:20:42.896Z,17.60
2019-04-29T08:21:45.472Z,17.49
2019-04-29T08:23:42.989Z,17.28
2019-04-29T08:24:45.844Z,17.13
2019-04-29T08:25:43.053Z,17.05
2019-04-29T08:26:47.272Z,16.92
2019-04-29T08:27:43.827Z,17.02
2019-04-29T08:28:43.155Z,17.35
2019-04-29T08:29:43.192Z,17.63
2019-04-29T08:30:45.790Z,17.25
2019-04-29T08:31:43.253Z,16.99
2019-04-29T08:32:43.288Z,17.35
2019-04-29T08:33:46.660Z,17.80
2019-04-29T08:34:43.357Z,17.17
2019-04-29T08:35:46.603Z,17.09
2019-04-29T08:36:43.417Z,17.27
2019-04-29T08:37:43.450Z,17.31
2019-04-29T08:38:43.485Z,17.39
2019-04-29T08:39:43.510Z,17.35
2019-04-29T08:40:45.227Z,17.55
2019-04-29T08:41:43.585Z,17.71
2019-04-29T08:42:46.815Z,18.08
2019-04-29T08:43:43.648Z,18.41
2019-04-29T08:44:43.685Z,17.60
2019-04-29T08:45:43.709Z,17.98
2019-04-29T08:46:49.970Z,18.49
2019-04-29T08:47:43.781Z,18.50
2019-04-29T08:48:45.923Z,18.60
2019-04-29T08:49:43.845Z,18.36
2019-04-29T08:50:43.880Z,17.88
2019-04-29T08:51:43.905Z,16.92
2019-04-29T08:52:43.939Z,17.05
2019-04-29T08:53:43.974Z,17.32
2019-04-29T08:54:44.011Z,17.39
2019-04-29T08:55:44.038Z,16.94
2019-04-29T08:57:01.857Z,17.47
2019-04-29T08:57:44.111Z,17.76
2019-04-29T08:58:49.027Z,18.50
2019-04-29T08:59:44.172Z,19.20
2019-04-29T09:00:44.208Z,19.57
2019-04-29T09:01:44.241Z,19.87
2019-04-29T09:02:47.146Z,19.52
2019-04-29T09:03:44.309Z,18.82
2019-04-29T09:04:53.506Z,18.10
2019-04-29T09:05:46.129Z,18.26
2019-04-29T09:06:44.403Z,18.01
2019-04-29T09:07:44.433Z,18.27
2019-04-29T09:08:54.675Z,18.53
2019-04-29T09:09:44.505Z,18.84
2019-04-29T09:10:44.535Z,18.66
2019-04-29T09:11:47.868Z,18.53
2019-04-29T09:12:44.606Z,19.05
2019-04-29T09:13:44.638Z,19.42
2019-04-29T09:14:44.671Z,19.56
2019-04-29T09:15:44.706Z,19.57
2019-04-29T09:16:44.734Z,19.40
2019-04-29T09:17:44.766Z,18.91
2019-04-29T09:18:44.801Z,18.29
2019-04-29T09:19:44.837Z,18.35
2019-04-29T09:20:44.872Z,18.10
2019-04-29T09:21:44.900Z,18.06
2019-04-29T09:22:44.937Z,17.63
2019-04-29T09:23:44.966Z,17.46
2019-04-29T09:24:48.216Z,17.65
2019-04-29T09:25:45.034Z,16.81
2019-04-29T09:26:45.064Z,16.45
2019-04-29T09:27:46.160Z,16.33
2019-04-29T09:28:45.129Z,16.25
2019-04-29T09:29:46.489Z,15.99
2019-04-29T09:30:45.193Z,15.84
2019-04-29T09:31:46.741Z,16.00
2019-04-29T09:32:45.263Z,16.13
2019-04-29T09:33:49.073Z,16.07
2019-04-29T09:34:45.329Z,16.10
2019-04-29T09:35:45.355Z,15.73
2019-04-29T09:36:48.347Z,16.32
2019-04-29T09:37:45.417Z,16.63
2019-04-29T09:38:45.447Z,16.92
2019-04-29T09:39:45.484Z,17.27
2019-04-29T09:40:45.814Z,17.69
2019-04-29T09:41:45.547Z,17.76
2019-04-29T09:42:50.049Z,17.92
2019-04-29T09:43:45.603Z,18.56
2019-04-29T09:44:45.644Z,18.87
2019-04-29T09:45:45.667Z,18.06
2019-04-29T09:46:45.707Z,17.76
2019-04-29T09:47:45.728Z,18.17
2019-04-29T09:48:45.762Z,18.47
2019-04-29T09:49:45.796Z,18.23
2019-04-29T09:50:45.829Z,18.56
2019-04-29T09:51:45.853Z,18.27
2019-04-29T09:52:45.889Z,17.98
2019-04-29T09:53:45.924Z,17.79
2019-04-29T09:54:45.950Z,17.57
2019-04-29T09:55:45.981Z,17.65
2019-04-29T09:56:46.013Z,17.62
2019-04-29T09:57:46.049Z,17.68
2019-04-29T09:58:46.082Z,17.42
2019-04-29T09:59:46.111Z,17.46
2019-04-29T10:00:46.140Z,17.22
2019-04-29T10:01:46.171Z,17.10
2019-04-29T10:02:46.203Z,17.13
2019-04-29T10:03:46.231Z,17.09
2019-04-29T10:04:56.361Z,16.76
2019-04-29T10:05:46.299Z,16.65
2019-04-29T10:06:46.324Z,16.70
2019-04-29T10:07:46.359Z,16.91
2019-04-29T10:08:46.389Z,17.06
2019-04-29T10:09:57.150Z,17.03
2019-04-29T10:10:46.457Z,16.81
2019-04-29T10:11:46.481Z,16.82
2019-04-29T10:12:46.512Z,17.02
2019-04-29T10:13:46.545Z,16.99
2019-04-29T10:14:46.571Z,17.09
2019-04-29T10:15:46.608Z,16.91
2019-04-29T10:16:46.632Z,16.73
2019-04-29T10:17:50.822Z,16.63
2019-04-29T10:18:46.695Z,16.49
2019-04-29T10:19:46.728Z,16.18
2019-04-29T10:20:46.753Z,16.33
2019-04-29T10:21:46.787Z,16.16
2019-04-29T10:22:50.262Z,16.10
2019-04-29T10:23:46.850Z,16.34
2019-04-29T10:24:46.872Z,16.58
2019-04-29T10:25:46.905Z,16.81
2019-04-29T10:26:46.938Z,16.29
2019-04-29T10:27:46.969Z,16.47
2019-04-29T10:28:46.992Z,16.51
2019-04-29T10:29:50.691Z,16.26
2019-04-29T10:30:47.055Z,16.34
2019-04-29T10:31:47.187Z,16.44
2019-04-29T10:32:47.112Z,16.59
2019-04-29T10:33:50.315Z,16.52
2019-04-29T10:34:47.179Z,16.30
2019-04-29T10:35:47.200Z,16.02
2019-04-29T10:36:47.240Z,16.26
2019-04-29T10:37:47.266Z,16.16
2019-04-29T10:38:47.295Z,16.26
2019-04-29T10:39:47.325Z,16.37
2019-04-29T10:40:47.353Z,16.54
2019-04-29T10:41:47.380Z,16.66
2019-04-29T10:42:47.415Z,16.59
2019-04-29T10:43:49.400Z,16.77
2019-04-29T10:44:47.466Z,16.94
2019-04-29T10:45:47.501Z,17.30
2019-04-29T10:46:47.531Z,17.50
2019-04-29T10:47:47.561Z,17.25
2019-04-29T10:48:47.586Z,17.07
2019-04-29T10:49:49.668Z,17.03
2019-04-29T10:50:52.005Z,17.25
2019-04-29T10:51:47.674Z,17.36
2019-04-29T10:52:47.709Z,17.47
2019-04-29T10:53:51.128Z,17.52
2019-04-29T10:54:51.136Z,17.55
2019-04-29T10:55:47.790Z,17.62
2019-04-29T10:56:47.823Z,17.80
2019-04-29T10:57:49.783Z,17.84
2019-04-29T10:58:47.885Z,17.77
2019-04-29T10:59:50.215Z,17.79
2019-04-29T11:00:47.944Z,17.74
2019-04-29T11:02:00.674Z,17.60
2019-04-29T11:02:49.350Z,17.77
2019-04-29T11:03:48.031Z,17.86
2019-04-29T11:04:48.065Z,17.76
2019-04-29T11:05:59.901Z,17.92
2019-04-29T11:06:48.119Z,17.80
2019-04-29T11:07:48.153Z,17.65
2019-04-29T11:08:48.187Z,17.38
2019-04-29T11:09:50.869Z,17.50
2019-04-29T11:10:48.244Z,17.62
2019-04-29T11:11:48.272Z,17.62
2019-04-29T11:12:48.304Z,17.71
2019-04-29T11:13:50.514Z,17.69
2019-04-29T11:14:48.360Z,17.62
2019-04-29T11:15:49.369Z,17.49
2019-04-29T11:16:48.416Z,17.39
2019-04-29T11:17:58.412Z,17.55
2019-04-29T11:18:48.483Z,17.71
2019-04-29T11:19:48.513Z,17.71
2019-04-29T11:20:48.854Z,17.62
2019-04-29T11:21:48.567Z,17.65
2019-04-29T11:22:48.613Z,17.87
2019-04-29T11:23:50.571Z,17.80
2019-04-29T11:24:48.660Z,17.76
2019-04-29T11:25:51.366Z,17.58
2019-04-29T11:26:48.730Z,17.65
2019-04-29T11:27:48.751Z,17.43
2019-04-29T11:28:51.140Z,17.40
2019-04-29T11:29:48.827Z,17.40
2019-04-29T11:30:49.687Z,17.60
2019-04-29T11:31:53.436Z,17.84
2019-04-29T11:32:48.899Z,18.56
2019-04-29T11:33:48.932Z,18.56
2019-04-29T11:34:53.083Z,19.12
2019-04-29T11:35:48.990Z,19.07
2019-04-29T11:36:49.018Z,19.05
2019-04-29T11:37:50.025Z,18.56
2019-04-29T11:38:49.092Z,18.44
2019-04-29T11:39:50.315Z,18.05
2019-04-29T11:40:49.142Z,18.31
2019-04-29T11:41:50.103Z,18.23
2019-04-29T11:42:49.199Z,18.13
2019-04-29T11:43:51.138Z,17.87
2019-04-29T11:44:49.268Z,17.57
2019-04-29T11:45:49.290Z,17.42
2019-04-29T11:46:50.615Z,17.71
2019-04-29T11:47:49.356Z,18.36
2019-04-29T11:48:49.385Z,19.17
2019-04-29T11:49:49.420Z,19.75
2019-04-29T11:50:52.918Z,20.29
2019-04-29T11:52:08.539Z,20.27
2019-04-29T11:52:49.510Z,19.43
2019-04-29T11:53:49.540Z,18.82
2019-04-29T11:54:49.565Z,18.71
2019-04-29T11:55:52.396Z,18.59
2019-04-29T11:56:49.628Z,18.87
2019-04-29T11:57:49.661Z,18.81
2019-04-29T11:58:49.688Z,18.51
2019-04-29T11:59:49.729Z,18.63
2019-04-29T12:00:51.997Z,18.54
2019-04-29T12:01:51.839Z,18.44
2019-04-29T12:02:49.816Z,18.86
2019-04-29T12:03:51.317Z,19.13
2019-04-29T12:04:49.874Z,19.16
2019-04-29T12:05:49.908Z,18.96
2019-04-29T12:06:51.192Z,18.93
2019-04-29T12:07:49.966Z,18.74
2019-04-29T12:08:53.170Z,18.74
2019-04-29T12:09:50.028Z,18.86
2019-04-29T12:11:06.221Z,18.66
2019-04-29T12:11:50.098Z,18.84
2019-04-29T12:12:50.276Z,19.00
2019-04-29T12:13:50.155Z,19.24
2019-04-29T12:14:50.182Z,18.97
2019-04-29T12:15:50.327Z,18.61
2019-04-29T12:16:50.245Z,18.68
2019-04-29T12:17:50.279Z,18.69
2019-04-29T12:18:50.310Z,18.65
2019-04-29T12:19:50.344Z,18.56
2019-04-29T12:20:50.376Z,18.60
2019-04-29T12:21:50.400Z,18.71
2019-04-29T12:22:50.440Z,18.87
2019-04-29T12:23:51.988Z,18.68
2019-04-29T12:24:50.498Z,18.61
2019-04-29T12:25:50.535Z,18.56
2019-04-29T12:26:50.560Z,18.39
2019-04-29T12:27:52.853Z,18.87
2019-04-29T12:28:50.622Z,19.61
2019-04-29T12:29:54.410Z,20.32
2019-04-29T12:30:50.708Z,20.75
2019-04-29T12:31:51.185Z,21.18
2019-04-29T12:32:50.739Z,21.16
2019-04-29T12:33:50.773Z,21.16
2019-04-29T12:34:50.903Z,21.51
2019-04-29T12:35:52.234Z,21.27
2019-04-29T12:36:56.289Z,21.76
2019-04-29T12:37:50.899Z,21.74
2019-04-29T12:38:51.359Z,20.79
2019-04-29T12:39:50.960Z,20.26
2019-04-29T12:40:55.131Z,20.12
2019-04-29T12:41:51.025Z,20.12
2019-04-29T12:42:51.053Z,19.64
2019-04-29T12:43:54.108Z,19.42
2019-04-29T12:44:51.122Z,19.05
2019-04-29T12:45:53.675Z,18.57
2019-04-29T12:46:51.181Z,18.34
2019-04-29T12:47:51.222Z,18.05
2019-04-29T12:48:51.249Z,17.98
2019-04-29T12:49:51.283Z,17.98
2019-04-29T12:50:57.238Z,18.03
2019-04-29T12:51:51.350Z,18.20
2019-04-29T12:52:51.397Z,17.99
2019-04-29T12:53:51.407Z,17.88
2019-04-29T12:54:51.442Z,17.88
2019-04-29T12:55:53.513Z,17.79
2019-04-29T12:56:51.500Z,17.84
2019-04-29T12:57:51.760Z,17.88
2019-04-29T12:58:55.144Z,17.95
2019-04-29T12:59:54.414Z,17.95
2019-04-29T13:00:59.816Z,17.81
2019-04-29T13:01:57.714Z,17.77
2019-04-29T13:02:55.536Z,17.80
2019-04-29T13:04:51.843Z,17.31
2019-04-29T13:05:58.595Z,17.06
2019-04-29T13:06:51.807Z,17.18